Language selection

My Weather Profile Weather Topics  | 

Lake Nipigon: Past 24 Hour Conditions

 

Geraldton Airport

01:00 PM EDT 23 September 2021
Disclaimer

This table is a summary of hourly weather conditions for the past 24 hours.
Please note that these observations might not always be representative of weather conditions over their associated marine area.

Date / Time
(EDT)
Wind(knots) Conditions Visibility(km) Pressure(kPa) Air tempC) Relative humidity(%) Dew pointC)
23 September 2021
13:00 W 6 Mainly Sunny 24 102.0 14 63 7
12:00 NE 7 Partly Cloudy 24 102.1 12 68 6
11:00 W 5 Mainly Sunny 24 102.2 9 96 9
10:00 W 5 Fog 0.4 102.2 5 100 5
9:00 calm Fog 0.2 102.3 4 100 4
8:00 calm Fog 0.2 102.3 4 100 4
7:00 calm Fog 0.2 102.3 3 100 3
6:00 calm Fog 0.4 102.3 3 99 2
5:00 calm Fog 0.6 102.3 3 99 3
4:00 SE 2 Fog 0.8 102.3 3 99 3
3:00 calm Fog 24 102.3 2 97 2
2:00 NW 2 Clear 24 102.3 5 99 5
1:00 NW 2 Clear 24 102.3 5 95 4
0:00 NW 2 Clear 24 102.3 5 97 5
22 September 2021
23:00 calm Clear 24 102.3 6 93 5
22:00 calm Clear 24 102.4 8 92 6
21:00 NW 2 Clear 24 102.4 9 86 6
20:00 N 2 Mainly Clear 24 102.4 11 78 7
19:00 N 5 Mainly Sunny 24 102.4 15 51 5
18:00 N 4 Mainly Sunny 24 102.4 17 41 4
17:00 N 8 Partly Cloudy 24 102.4 17 43 5
16:00 N 7 Partly Cloudy 24 102.4 15 51 5
15:00 NW 7 Partly Cloudy 24 102.4 15 50 5
14:00 NW 5 Partly Cloudy 24 102.5 16 53 7
13:00 NW 10 Partly Cloudy 24 102.6 15 53 6

Zoom-in to make a selection

Map of Great Lakes - Lake Superior marine weather areas Mid Superior - 45001 East Superior - 45004 West Superior - 45006 Slate Island - 45136 Lake Of the Woods - 45148 Kenora Airport Royal Island Armstrong Airport Caribou Island Marathon Airport Pukaskwa National Park Thunder Bay Airport Welcome Island Little Flatland Island Sault Ste. Marie Airport Wawa Airport
Legend:
buoy Buoy
land station Land Station

Great Lakes - Lake Superior Area

Another Region

What we are doing

Date modified: